Kapuskasing, Ontario

6:50 PM EST on February 07, 2016 (GMT -0500)
Kapuskasing | | Change Station
CLOSE
Current Station
Airport
Location: Kapuskasing,
Elevation: 745 ft
Nearby Weather Stations

Elev 745 ft 49.41 °N, 82.47 °W | Updated 50 minutes ago

Light Snow
Light Snow Blowing Snow
5 °F
Feels Like -14 °F
N
17
Wind Variable Wind from SE

Today
High -- | Low -- °F
--% Chance of Precip.
Yesterday
High -- | Low -- °F
Precip. -- in
Pressure 29.96 in
Visibility 0.8 miles
Clouds
Windchill -14 °F
Dew Point 1 °F
Humidity 85%
Rainfall 0.00 in
Snow Depth Not available.
7:53 AM 5:35 PM
Waning Crescent, 1% visible
METAR CYYU 072300Z 13015KT 3/4SM -SN BLSN VV004 M15/M17 A2988 RMK SN8 SLP145
Pressure 29.96 in
Visibility 0.8 miles
Clouds
Windchill -14 °F
Dew Point 1 °F
Humidity 85%
Rainfall 0.00 in
Snow Depth Not available.
7:53 AM 5:35 PM
Waning Crescent, 1% visible
METAR CYYU 072300Z 13015KT 3/4SM -SN BLSN VV004 M15/M17 A2988 RMK SN8 SLP145

10-Day Weather Forecast

Almanac

Astronomy

Feb. 07, 2016 Rise Set
Actual Time
Civil Twilight
Nautical Twilight
Astronomical Twilight
Moon
Length of Visible Light
Length of Day
Tomorrow will be .
, % of the Moon is Illuminated

Today's Extremes

Country Highs Country Lows

Community

WunderPhotos

Upload Photos

1,891,329 photos uploaded!

WunderBlog® & News

Nearby

Air Quality

  Air Quality AQ Index Pollutant
Not available.

Snow Depth

Station Depth Elevation

Earthquake Activity

City Distance Mag. Time & Date
Minimum magnitude displayed is 2.5.

Coastal Water Temperatures

Place Temperature

Stations

Nearby Weather Stations

Station Location Temp. Windchill Dew Point Humidity Wind Precip. Elev Updated Type
                   

Watches & Warnings

There are currently no watches in effect.